»·PEaware :: N9229P KAPA-KPUB

N9229P :: KAPA-KPUB

FLIGHT INFORMATION

Flight Status: Arrived
Operator: Privately registered:
United States
More flights under this callsign
Pilot: James W. (24810)
Aircraft: PIPER PA-24 COMMANCHE
(PA24)
More flights by this aircraft type
Origin: KAPA Centennial
United States
Destination: KPUB Pueblo Meml
United States
More flights between these airports :: More routes between these airports
Route: PIKES2 PUB
File this flight plan on PilotEdge
Remarks:
Altitude:
(Current/Filed)
9,000ft
Speed:
(Current/Filed)
165kts
Departed: 01-Sep-20 05:33 PM
Arrived: 01-Sep-20 06:18 PM
Distance/Time
Traveled:
79nm/0:44
Distance/Time
To Go:
Arrived

Flight Plot

Page will automatically refresh every two minutes.

Flight plan parsing failed; only flown route is shown


Map Options




Map Legend


Flown Route
Filed Route
Departure Airport
Arrival Airport
Navaid (VOR, NDB)
Fix

Horizontal Profiles

Position Reports

Time Latitude Longitude Heading Altitude Ground
Speed
01-Sep-20 17:16 39.583026 -104.848972 269 5886ft 0kts
01-Sep-20 17:17 39.583026 -104.848972 269 5886ft 0kts
01-Sep-20 17:18 39.583026 -104.848972 269 5886ft 0kts
01-Sep-20 17:19 39.583026 -104.848972 269 5886ft 0kts
01-Sep-20 17:20 39.583026 -104.848972 269 5886ft 0kts
01-Sep-20 17:21 39.583026 -104.848972 269 5886ft 0kts
01-Sep-20 17:22 39.583026 -104.848972 269 5886ft 0kts
01-Sep-20 17:23 39.583026 -104.848972 269 5886ft 0kts
01-Sep-20 17:24 39.583026 -104.848972 269 5886ft 0kts
01-Sep-20 17:25 39.583026 -104.848972 269 5886ft 0kts
01-Sep-20 17:26 39.583026 -104.848972 269 5886ft 0kts
01-Sep-20 17:27 39.583026 -104.848972 269 5886ft 0kts
01-Sep-20 17:28 39.583026 -104.848972 269 5886ft 0kts
01-Sep-20 17:29 39.583087 -104.849254 315 5886ft 2kts
01-Sep-20 17:30 39.584130 -104.849750 271 5886ft 4kts
01-Sep-20 17:31 39.584121 -104.850181 263 5886ft 0kts
01-Sep-20 17:32 39.582962 -104.851453 174 5886ft 42kts
01-Sep-20 17:33 39.555641 -104.850112 177 6788ft 124kts
01-Sep-20 17:34 39.518397 -104.848370 177 7896ft 145kts
01-Sep-20 17:35 39.477395 -104.837331 148 8607ft 159kts
01-Sep-20 17:36 39.437298 -104.806694 148 8882ft 177kts
01-Sep-20 17:38 39.394390 -104.772906 148 8881ft 182kts
01-Sep-20 17:39 39.350877 -104.738614 148 8881ft 183kts
01-Sep-20 17:40 39.307421 -104.704427 148 8881ft 183kts
01-Sep-20 17:41 39.263770 -104.670134 148 8881ft 183kts
01-Sep-20 17:42 39.220145 -104.635911 148 8881ft 183kts
01-Sep-20 17:43 39.176527 -104.601744 148 8881ft 183kts
01-Sep-20 17:44 39.132824 -104.567561 148 8881ft 183kts
01-Sep-20 17:45 39.089120 -104.533421 148 8864ft 184kts
01-Sep-20 17:46 39.045414 -104.499344 148 8862ft 183kts
01-Sep-20 17:47 39.001761 -104.465349 148 8862ft 183kts
01-Sep-20 17:48 38.958150 -104.431438 148 8862ft 183kts
01-Sep-20 17:49 38.913666 -104.399739 168 8860ft 183kts
01-Sep-20 17:50 38.862769 -104.401436 181 8862ft 183kts
01-Sep-20 17:51 38.811817 -104.403895 181 8862ft 183kts
01-Sep-20 17:51 38.769408 -104.405989 181 8862ft 183kts
01-Sep-20 17:53 38.709903 -104.408919 181 8862ft 183kts
01-Sep-20 17:54 38.658948 -104.411424 181 8862ft 183kts
01-Sep-20 17:54 38.616568 -104.413504 181 8862ft 183kts
01-Sep-20 17:56 38.557191 -104.416388 181 8861ft 181kts
01-Sep-20 17:57 38.508757 -104.418796 181 8862ft 169kts
01-Sep-20 17:57 38.469952 -104.420699 181 8862ft 167kts
01-Sep-20 17:58 38.423662 -104.422959 181 8862ft 166kts
01-Sep-20 17:59 38.380240 -104.432440 234 8815ft 169kts
01-Sep-20 18:00 38.370479 -104.493502 259 8211ft 178kts
01-Sep-20 18:01 38.361805 -104.554689 259 7962ft 168kts
01-Sep-20 18:02 38.353826 -104.610622 259 7961ft 150kts
01-Sep-20 18:03 38.346633 -104.660821 259 7961ft 136kts
01-Sep-20 18:04 38.340515 -104.703000 259 7962ft 114kts
01-Sep-20 18:05 38.334833 -104.742246 259 7963ft 111kts
01-Sep-20 18:06 38.329179 -104.781390 259 7963ft 112kts
01-Sep-20 18:07 38.319493 -104.817437 205 7965ft 110kts
01-Sep-20 18:08 38.292497 -104.800592 142 7716ft 121kts
01-Sep-20 18:09 38.280954 -104.763715 88 7221ft 122kts
01-Sep-20 18:10 38.281926 -104.720770 87 6868ft 115kts
01-Sep-20 18:11 38.282849 -104.684283 87 6863ft 101kts
01-Sep-20 18:12 38.283749 -104.648282 87 6848ft 103kts
01-Sep-20 18:13 38.284658 -104.611960 87 6286ft 100kts
01-Sep-20 18:14 38.285507 -104.576866 87 5742ft 99kts
01-Sep-20 18:15 38.286359 -104.541974 87 5209ft 97kts
01-Sep-20 18:16 38.287168 -104.508642 86 4701ft 78kts
01-Sep-20 18:17 38.284327 -104.497211 180 4648ft 16kts

Navigation Log

Ident Type
Flight plan parsing failed, navigation log unavailable